createdAt,value
2022-10-02T00:02:40.022Z,10.60
2022-10-02T00:07:52.252Z,10.60
2022-10-02T00:13:02.882Z,10.70
2022-10-02T00:18:12.250Z,10.60
2022-10-02T00:23:35.379Z,10.50
2022-10-02T00:28:48.181Z,10.30
2022-10-02T00:34:05.512Z,10.30
2022-10-02T00:39:42.248Z,10.40
2022-10-02T00:45:21.824Z,10.50
2022-10-02T00:50:38.218Z,10.60
2022-10-02T00:56:06.625Z,10.60
2022-10-02T01:01:41.876Z,10.60
2022-10-02T01:06:44.460Z,10.60
2022-10-02T01:11:46.832Z,10.70
2022-10-02T01:16:51.700Z,10.70
2022-10-02T01:22:04.307Z,10.70
2022-10-02T01:27:06.800Z,10.70
2022-10-02T01:32:10.137Z,10.70
2022-10-02T01:37:13.140Z,10.70
2022-10-02T01:42:16.174Z,10.70
2022-10-02T01:47:36.046Z,10.80
2022-10-02T01:53:10.540Z,10.80
2022-10-02T01:58:30.697Z,10.90
2022-10-02T02:04:14.502Z,10.80
2022-10-02T02:09:23.161Z,10.90
2022-10-02T02:14:36.136Z,10.80
2022-10-02T02:19:46.466Z,10.70
2022-10-02T02:24:58.048Z,10.70
2022-10-02T02:30:07.598Z,10.70
2022-10-02T02:35:15.582Z,10.80
2022-10-02T02:40:24.566Z,10.70
2022-10-02T02:45:37.155Z,10.70
2022-10-02T02:50:51.341Z,10.80
2022-10-02T02:55:58.052Z,10.80
2022-10-02T03:01:00.765Z,10.80
2022-10-02T03:06:21.787Z,10.80
2022-10-02T03:11:30.131Z,10.80
2022-10-02T03:16:47.805Z,10.90
2022-10-02T03:22:27.038Z,10.90
2022-10-02T03:27:46.449Z,10.90
2022-10-02T03:32:53.582Z,10.90
2022-10-02T03:38:05.154Z,10.90
2022-10-02T03:43:09.783Z,10.80
2022-10-02T03:48:12.227Z,10.80
2022-10-02T03:53:21.977Z,10.80
2022-10-02T03:58:25.854Z,10.80
2022-10-02T04:03:43.921Z,10.90
2022-10-02T04:09:02.819Z,10.90
2022-10-02T04:14:15.422Z,10.90
2022-10-02T04:19:40.395Z,10.90
2022-10-02T04:24:51.861Z,10.90
2022-10-02T04:30:02.936Z,10.90
2022-10-02T04:35:20.864Z,10.90
2022-10-02T04:41:00.959Z,10.90
2022-10-02T04:46:09.106Z,12.50
2022-10-02T04:51:36.334Z,10.80
2022-10-02T04:56:58.624Z,10.80
2022-10-02T05:02:18.213Z,10.80
2022-10-02T05:07:26.984Z,10.80
2022-10-02T05:12:38.989Z,10.80
2022-10-02T05:17:50.705Z,10.80
2022-10-02T05:23:22.994Z,10.80
2022-10-02T05:28:31.416Z,10.90
2022-10-02T05:34:11.151Z,10.90
2022-10-02T05:39:27.153Z,10.90
2022-10-02T05:44:41.767Z,11.00
2022-10-02T05:49:55.878Z,11.10
2022-10-02T05:55:04.086Z,11.20
2022-10-02T06:00:27.184Z,11.20
2022-10-02T06:06:02.866Z,11.30
2022-10-02T06:11:15.568Z,11.40
2022-10-02T06:16:36.668Z,11.40
2022-10-02T06:21:45.498Z,11.60
2022-10-02T06:27:31.938Z,11.70
2022-10-02T06:32:43.340Z,11.70
2022-10-02T06:38:16.952Z,11.70
2022-10-02T06:43:49.184Z,11.70
2022-10-02T06:49:00.444Z,11.70
2022-10-02T06:54:11.874Z,11.90
2022-10-02T06:59:56.502Z,12.00
2022-10-02T07:05:04.709Z,11.90
2022-10-02T07:10:26.175Z,11.90
2022-10-02T07:15:37.732Z,11.90
2022-10-02T07:21:07.901Z,12.00
2022-10-02T07:26:30.756Z,12.20
2022-10-02T07:31:46.202Z,12.30
2022-10-02T07:37:07.406Z,12.50
2022-10-02T07:42:27.946Z,12.70
2022-10-02T07:48:13.513Z,12.90
2022-10-02T07:53:25.537Z,13.00
2022-10-02T07:59:00.124Z,13.00
2022-10-02T08:04:05.957Z,13.00
2022-10-02T08:09:17.984Z,13.00
2022-10-02T08:14:27.090Z,13.20
2022-10-02T08:19:48.033Z,13.50
2022-10-02T08:24:56.845Z,13.70
2022-10-02T08:30:03.938Z,13.70
2022-10-02T08:35:12.505Z,13.80
2022-10-02T08:40:39.829Z,13.60
2022-10-02T08:46:10.127Z,13.80
2022-10-02T08:51:12.480Z,13.80
2022-10-02T08:56:24.846Z,14.30
2022-10-02T09:01:27.268Z,14.60
2022-10-02T09:06:30.642Z,14.70
2022-10-02T09:11:59.213Z,14.80
2022-10-02T09:17:07.705Z,14.90
2022-10-02T09:22:42.230Z,14.40
2022-10-02T09:28:04.911Z,14.30
2022-10-02T09:33:22.639Z,14.30
2022-10-02T09:38:45.307Z,14.30
2022-10-02T09:44:19.508Z,14.40
2022-10-02T09:49:53.656Z,14.30
2022-10-02T09:54:56.404Z,14.90
2022-10-02T10:00:27.625Z,15.10
2022-10-02T10:05:42.182Z,14.80
2022-10-02T10:11:02.723Z,14.50
2022-10-02T10:16:32.388Z,14.60
2022-10-02T10:21:36.037Z,14.80
2022-10-02T10:27:16.410Z,14.80
2022-10-02T10:32:26.226Z,14.50
2022-10-02T10:38:26.342Z,13.80
2022-10-02T10:43:32.361Z,13.80
2022-10-02T10:48:40.758Z,14.00
2022-10-02T10:54:13.527Z,13.80
2022-10-02T11:00:01.613Z,14.00
2022-10-02T11:05:07.690Z,14.10
2022-10-02T11:10:22.948Z,14.10
2022-10-02T11:15:52.057Z,14.00
2022-10-02T11:21:15.467Z,14.30
2022-10-02T11:26:50.079Z,13.90
2022-10-02T11:32:10.088Z,13.40
2022-10-02T11:37:50.108Z,14.10
2022-10-02T11:43:28.820Z,14.30
2022-10-02T11:48:44.478Z,14.90
2022-10-02T11:54:05.609Z,15.10
2022-10-02T11:59:18.628Z,15.30
2022-10-02T12:04:36.844Z,14.70
2022-10-02T12:10:07.232Z,14.20
2022-10-02T12:15:47.420Z,14.30
2022-10-02T12:21:39.382Z,14.90
2022-10-02T12:27:00.209Z,15.50
2022-10-02T12:32:38.772Z,15.10
2022-10-02T12:37:57.281Z,14.90
2022-10-02T12:43:02.402Z,15.30
2022-10-02T12:48:29.315Z,15.00
2022-10-02T12:53:46.721Z,14.40
2022-10-02T12:59:04.952Z,14.10
2022-10-02T13:04:39.166Z,13.90
2022-10-02T13:10:16.652Z,14.00
2022-10-02T13:15:29.352Z,14.70
2022-10-02T13:21:04.210Z,15.50
2022-10-02T13:26:22.399Z,16.00
2022-10-02T13:31:51.721Z,16.00
2022-10-02T13:37:09.178Z,15.30
2022-10-02T13:42:14.797Z,15.00
2022-10-02T13:47:41.454Z,15.20
2022-10-02T13:52:46.638Z,15.20
2022-10-02T13:58:44.241Z,15.00
2022-10-02T14:04:23.473Z,14.60
2022-10-02T14:09:35.188Z,14.20
2022-10-02T14:15:09.637Z,14.40
2022-10-02T14:20:49.261Z,14.90
2022-10-02T14:26:12.524Z,14.90
2022-10-02T14:31:30.007Z,14.80
2022-10-02T14:36:54.262Z,14.90
2022-10-02T14:42:21.698Z,14.80
2022-10-02T14:47:26.851Z,14.60
2022-10-02T14:52:32.449Z,14.30
2022-10-02T14:57:47.466Z,14.30
2022-10-02T15:03:06.028Z,14.20
2022-10-02T15:08:18.605Z,13.90
2022-10-02T15:13:38.864Z,13.80
2022-10-02T15:18:55.313Z,13.60
2022-10-02T15:24:13.418Z,12.50
2022-10-02T15:29:25.523Z,12.90
2022-10-02T15:34:34.082Z,12.60
2022-10-02T15:39:42.348Z,12.40
2022-10-02T15:44:50.814Z,12.10
2022-10-02T15:50:33.619Z,12.00
2022-10-02T15:55:43.596Z,12.00
2022-10-02T16:01:01.127Z,11.90
2022-10-02T16:06:36.775Z,12.00
2022-10-02T16:11:39.289Z,11.80
2022-10-02T16:16:42.211Z,11.60
2022-10-02T16:22:00.599Z,11.60
2022-10-02T16:27:19.299Z,11.70
2022-10-02T16:32:34.369Z,11.60
2022-10-02T16:37:46.630Z,11.60
2022-10-02T16:43:13.017Z,11.50
2022-10-02T16:48:22.654Z,11.50
2022-10-02T16:53:53.153Z,11.50
2022-10-02T16:59:12.568Z,11.50
2022-10-02T17:04:24.613Z,11.50
2022-10-02T17:09:34.879Z,11.50
2022-10-02T17:14:57.196Z,11.50
2022-10-02T17:20:03.273Z,11.50
2022-10-02T17:25:27.270Z,11.60
2022-10-02T17:30:49.919Z,11.60
2022-10-02T17:36:06.358Z,11.60
2022-10-02T17:41:14.453Z,11.60
2022-10-02T17:46:19.936Z,11.40
2022-10-02T17:51:53.514Z,11.30
2022-10-02T17:57:27.311Z,11.20
2022-10-02T18:02:51.010Z,11.10
2022-10-02T18:08:09.580Z,11.00
2022-10-02T18:13:42.925Z,11.00
2022-10-02T18:19:09.404Z,10.90
2022-10-02T18:24:36.296Z,10.60
2022-10-02T18:29:58.596Z,10.60
2022-10-02T18:35:22.737Z,10.60
2022-10-02T18:40:35.217Z,10.30
2022-10-02T18:45:56.284Z,10.20
2022-10-02T18:51:08.004Z,10.00
2022-10-02T18:56:15.161Z,10.00
2022-10-02T19:01:23.420Z,10.10
2022-10-02T19:06:55.132Z,10.20
2022-10-02T19:12:05.143Z,10.40
2022-10-02T19:17:21.937Z,10.30
2022-10-02T19:22:36.311Z,10.40
2022-10-02T19:27:40.865Z,10.50
2022-10-02T19:32:43.420Z,10.50
2022-10-02T19:37:49.373Z,10.50
2022-10-02T19:42:57.581Z,10.50
2022-10-02T19:48:02.783Z,10.50
2022-10-02T19:53:27.625Z,10.40
2022-10-02T19:58:39.249Z,10.40
2022-10-02T20:03:43.812Z,10.30
2022-10-02T20:09:04.226Z,10.30
2022-10-02T20:14:17.743Z,10.20
2022-10-02T20:19:27.517Z,10.00
2022-10-02T20:24:39.520Z,9.80
2022-10-02T20:29:47.164Z,9.50
2022-10-02T20:34:56.556Z,9.40
2022-10-02T20:40:17.968Z,9.10
2022-10-02T20:45:24.473Z,9.00
2022-10-02T20:50:33.260Z,8.90
2022-10-02T20:56:07.784Z,8.80
2022-10-02T21:01:20.162Z,8.80
2022-10-02T21:06:35.645Z,8.60
2022-10-02T21:11:56.421Z,8.60
2022-10-02T21:17:13.223Z,8.50
2022-10-02T21:22:39.902Z,8.50
2022-10-02T21:28:06.593Z,8.30
2022-10-02T21:33:19.061Z,8.40
2022-10-02T21:39:04.290Z,8.40
2022-10-02T21:44:46.441Z,8.20
2022-10-02T21:50:07.627Z,8.30
2022-10-02T21:55:44.162Z,8.60
2022-10-02T22:01:08.634Z,8.80
2022-10-02T22:06:39.953Z,8.70
2022-10-02T22:12:07.024Z,8.50
2022-10-02T22:17:29.525Z,9.00
2022-10-02T22:22:50.655Z,9.00
2022-10-02T22:28:33.298Z,8.80
2022-10-02T22:34:00.825Z,8.90
2022-10-02T22:39:19.238Z,8.80
2022-10-02T22:44:40.347Z,8.60
2022-10-02T22:49:49.989Z,8.50
2022-10-02T22:54:58.300Z,8.60
2022-10-02T23:00:10.117Z,8.50
2022-10-02T23:05:16.091Z,8.50
2022-10-02T23:10:35.632Z,8.50
2022-10-02T23:15:42.602Z,8.60
2022-10-02T23:21:16.719Z,9.00
2022-10-02T23:26:47.129Z,9.20
2022-10-02T23:32:13.621Z,9.40
2022-10-02T23:37:20.147Z,9.50
2022-10-02T23:42:33.370Z,9.50
2022-10-02T23:47:36.847Z,9.50
2022-10-02T23:52:50.693Z,9.50
2022-10-02T23:58:13.417Z,9.30
